createdAt,value
2019-04-29T00:01:37.746Z,2.55
2019-04-29T00:04:08.765Z,3.08
2019-04-29T00:06:39.805Z,2.70
2019-04-29T00:09:12.133Z,2.83
2019-04-29T00:11:40.871Z,2.30
2019-04-29T00:14:09.795Z,2.50
2019-04-29T00:16:40.557Z,2.33
2019-04-29T00:19:10.913Z,2.52
2019-04-29T00:21:40.723Z,3.30
2019-04-29T00:24:09.592Z,2.17
2019-04-29T00:26:38.580Z,2.30
2019-04-29T00:29:08.568Z,2.58
2019-04-29T00:31:37.288Z,2.30
2019-04-29T00:34:07.528Z,2.50
2019-04-29T00:36:50.197Z,2.90
2019-04-29T00:39:23.676Z,2.80
2019-04-29T00:42:10.521Z,2.33
2019-04-29T00:44:39.327Z,2.62
2019-04-29T00:47:08.147Z,2.70
2019-04-29T00:49:36.904Z,2.80
2019-04-29T00:52:05.723Z,2.75
2019-04-29T00:54:36.100Z,2.58
2019-04-29T00:57:05.081Z,2.55
2019-04-29T00:59:33.812Z,2.20
2019-04-29T01:02:02.707Z,2.20
2019-04-29T01:04:33.515Z,2.30
2019-04-29T01:07:01.918Z,2.42
2019-04-29T01:09:31.132Z,2.60
2019-04-29T01:11:59.840Z,3.20
2019-04-29T01:14:28.567Z,2.33
2019-04-29T01:16:57.312Z,2.08
2019-04-29T01:19:28.182Z,2.27
2019-04-29T01:21:58.465Z,2.40
2019-04-29T01:24:28.729Z,2.42
2019-04-29T01:26:59.128Z,2.58
2019-04-29T01:29:31.498Z,2.70
2019-04-29T01:32:00.290Z,2.33
2019-04-29T01:34:45.740Z,2.30
2019-04-29T01:37:14.547Z,2.30
2019-04-29T01:39:47.179Z,2.70
2019-04-29T01:42:17.559Z,2.60
2019-04-29T01:44:46.392Z,2.40
2019-04-29T01:47:15.112Z,2.70
2019-04-29T01:49:43.849Z,2.02
2019-04-29T01:52:12.568Z,2.72
2019-04-29T01:54:41.296Z,2.27
2019-04-29T01:57:10.015Z,2.58
2019-04-29T01:59:38.839Z,2.17
2019-04-29T02:02:07.725Z,2.08
2019-04-29T02:04:37.935Z,2.22
2019-04-29T02:07:06.728Z,2.45
2019-04-29T02:09:39.134Z,2.77
2019-04-29T02:12:07.841Z,2.40
2019-04-29T02:14:37.727Z,2.72
2019-04-29T02:17:07.135Z,2.60
2019-04-29T02:19:35.930Z,2.40
2019-04-29T02:22:09.794Z,2.20
2019-04-29T02:24:42.693Z,2.55
2019-04-29T02:27:11.408Z,2.70
2019-04-29T02:29:40.115Z,2.58
2019-04-29T02:32:12.803Z,2.83
2019-04-29T02:34:43.430Z,2.62
2019-04-29T02:37:13.567Z,2.70
2019-04-29T02:39:43.890Z,2.33
2019-04-29T02:42:30.758Z,2.33
2019-04-29T02:45:01.050Z,2.92
2019-04-29T02:47:32.123Z,2.35
2019-04-29T02:50:02.070Z,2.60
2019-04-29T02:52:30.965Z,2.22
2019-04-29T02:55:01.429Z,2.60
2019-04-29T02:57:34.660Z,2.70
2019-04-29T03:00:08.865Z,2.90
2019-04-29T03:02:39.831Z,3.37
2019-04-29T03:05:16.357Z,2.70
2019-04-29T03:07:45.163Z,2.40
2019-04-29T03:10:14.083Z,2.65
2019-04-29T03:12:42.866Z,2.55
2019-04-29T03:15:11.956Z,2.80
2019-04-29T03:17:40.914Z,2.58
2019-04-29T03:20:11.475Z,2.70
2019-04-29T03:22:41.917Z,2.87
2019-04-29T03:25:10.785Z,2.80
2019-04-29T03:27:39.616Z,3.02
2019-04-29T03:30:10.760Z,2.90
2019-04-29T03:32:39.248Z,2.23
2019-04-29T03:35:09.562Z,2.45
2019-04-29T03:37:38.331Z,2.65
2019-04-29T03:40:07.233Z,3.00
2019-04-29T03:42:37.221Z,2.70
2019-04-29T03:45:07.333Z,2.87
2019-04-29T03:47:36.113Z,3.20
2019-04-29T03:50:05.707Z,2.75
2019-04-29T03:52:37.211Z,3.00
2019-04-29T03:55:06.742Z,2.87
2019-04-29T03:57:36.938Z,2.75
2019-04-29T04:00:12.144Z,2.62
2019-04-29T04:02:48.519Z,2.92
2019-04-29T04:05:33.853Z,2.75
2019-04-29T04:08:13.090Z,2.87
2019-04-29T04:10:41.978Z,2.75
2019-04-29T04:13:10.746Z,2.98
2019-04-29T04:15:39.562Z,2.92
2019-04-29T04:18:12.774Z,3.30
2019-04-29T04:20:41.789Z,2.70
2019-04-29T04:23:10.537Z,2.98
2019-04-29T04:25:39.396Z,3.08
2019-04-29T04:28:08.264Z,3.40
2019-04-29T04:30:37.119Z,2.98
2019-04-29T04:33:05.867Z,3.10
2019-04-29T04:35:34.742Z,3.35
2019-04-29T04:38:03.529Z,2.92
2019-04-29T04:40:33.895Z,3.72
2019-04-29T04:43:02.698Z,3.33
2019-04-29T04:45:33.329Z,2.85
2019-04-29T04:48:01.805Z,2.87
2019-04-29T04:50:30.643Z,3.02
2019-04-29T04:53:00.487Z,2.92
2019-04-29T04:55:30.809Z,3.00
2019-04-29T04:57:59.556Z,3.25
2019-04-29T05:00:29.918Z,3.17
2019-04-29T05:02:58.643Z,3.10
2019-04-29T05:05:27.584Z,2.80
2019-04-29T05:07:58.417Z,2.92
2019-04-29T05:10:28.139Z,2.87
2019-04-29T05:12:56.970Z,3.58
2019-04-29T05:15:25.653Z,2.37
2019-04-29T05:17:54.448Z,3.02
2019-04-29T05:20:23.161Z,3.22
2019-04-29T05:23:00.949Z,3.22
2019-04-29T05:25:31.026Z,3.30
2019-04-29T05:28:00.212Z,3.00
2019-04-29T05:30:29.230Z,3.85
2019-04-29T05:32:58.080Z,4.00
2019-04-29T05:35:28.674Z,3.72
2019-04-29T05:38:02.149Z,3.67
2019-04-29T05:40:38.495Z,3.45
2019-04-29T05:43:11.553Z,2.85
2019-04-29T05:45:46.135Z,3.30
2019-04-29T05:48:17.525Z,3.33
2019-04-29T05:51:03.241Z,3.25
2019-04-29T05:53:42.801Z,3.33
2019-04-29T05:56:11.525Z,2.95
2019-04-29T05:58:40.236Z,3.30
2019-04-29T06:01:10.631Z,3.52
2019-04-29T06:03:39.869Z,3.37
2019-04-29T06:06:12.021Z,3.30
2019-04-29T06:08:41.248Z,3.20
2019-04-29T06:11:10.082Z,3.22
2019-04-29T06:13:38.790Z,3.85
2019-04-29T06:16:07.509Z,3.55
2019-04-29T06:18:36.294Z,2.98
2019-04-29T06:21:09.118Z,3.45
2019-04-29T06:23:35.547Z,3.55
2019-04-29T06:26:04.274Z,3.45
2019-04-29T06:28:34.462Z,3.33
2019-04-29T06:31:03.265Z,2.98
2019-04-29T06:33:33.454Z,3.98
2019-04-29T06:36:03.816Z,3.40
2019-04-29T06:38:33.161Z,3.67
2019-04-29T06:41:05.498Z,3.30
2019-04-29T06:43:32.356Z,3.20
2019-04-29T06:46:01.197Z,3.30
2019-04-29T06:48:29.895Z,3.45
2019-04-29T06:50:58.616Z,4.20
2019-04-29T06:53:27.342Z,3.42
2019-04-29T06:55:56.121Z,3.60
2019-04-29T06:58:24.840Z,3.85
2019-04-29T07:00:55.976Z,3.75
2019-04-29T07:03:25.526Z,3.50
2019-04-29T07:05:54.398Z,3.47
2019-04-29T07:08:23.135Z,3.67
2019-04-29T07:10:55.987Z,3.60
2019-04-29T07:13:22.686Z,3.27
2019-04-29T07:15:54.114Z,3.55
2019-04-29T07:18:22.850Z,3.65
2019-04-29T07:20:51.584Z,3.45
2019-04-29T07:23:20.332Z,3.37
2019-04-29T07:25:49.106Z,3.27
2019-04-29T07:28:18.320Z,3.40
2019-04-29T07:31:00.936Z,3.40
2019-04-29T07:33:22.613Z,3.15
2019-04-29T07:35:49.656Z,3.55
2019-04-29T07:38:18.485Z,3.95
2019-04-29T07:40:47.262Z,3.60
2019-04-29T07:43:16.053Z,3.50
2019-04-29T07:45:49.353Z,3.45
2019-04-29T07:48:18.131Z,3.30
2019-04-29T07:50:47.652Z,3.25
2019-04-29T07:53:20.897Z,3.62
2019-04-29T07:55:48.216Z,4.35
2019-04-29T07:58:17.035Z,3.50
2019-04-29T08:00:48.756Z,3.42
2019-04-29T08:03:17.809Z,3.50
2019-04-29T08:05:46.716Z,3.72
2019-04-29T08:08:16.625Z,4.00
2019-04-29T08:10:56.009Z,3.62
2019-04-29T08:13:21.371Z,3.20
2019-04-29T08:18:20.242Z,3.27
2019-04-29T08:20:51.776Z,3.15
2019-04-29T08:23:20.497Z,3.30
2019-04-29T08:25:51.191Z,3.72
2019-04-29T08:28:22.068Z,4.10
2019-04-29T08:30:50.810Z,3.87
2019-04-29T08:33:19.607Z,3.80
2019-04-29T08:35:48.344Z,3.35
2019-04-29T08:38:18.549Z,4.30
2019-04-29T08:40:50.207Z,3.87
2019-04-29T08:43:26.621Z,3.80
2019-04-29T08:46:06.231Z,3.33
2019-04-29T08:48:35.077Z,3.52
2019-04-29T08:51:04.153Z,4.53
2019-04-29T08:53:32.896Z,4.12
2019-04-29T08:56:01.641Z,4.40
2019-04-29T08:58:30.367Z,4.00
2019-04-29T09:00:59.130Z,3.40
2019-04-29T09:03:39.621Z,3.67
2019-04-29T09:06:05.660Z,3.25
2019-04-29T09:08:28.768Z,3.50
2019-04-29T09:10:58.998Z,3.55
2019-04-29T09:13:27.772Z,5.10
2019-04-29T09:15:56.566Z,3.22
2019-04-29T09:18:25.392Z,3.50
2019-04-29T09:20:54.085Z,3.47
2019-04-29T09:23:26.884Z,3.80
2019-04-29T09:26:16.034Z,3.65
2019-04-29T09:28:44.789Z,3.72
2019-04-29T09:31:13.512Z,3.52
2019-04-29T09:33:48.432Z,4.60
2019-04-29T09:36:13.883Z,4.90
2019-04-29T09:38:43.192Z,3.75
2019-04-29T09:41:13.556Z,4.03
2019-04-29T09:43:43.944Z,3.62
2019-04-29T09:46:14.314Z,3.80
2019-04-29T09:48:44.411Z,3.37
2019-04-29T09:51:17.595Z,2.70
2019-04-29T09:53:44.741Z,3.12
2019-04-29T09:56:13.473Z,3.15
2019-04-29T09:58:42.202Z,3.77
2019-04-29T10:01:13.715Z,3.00
2019-04-29T10:03:54.388Z,3.50
2019-04-29T10:06:30.980Z,4.85
2019-04-29T10:08:59.770Z,4.12
2019-04-29T10:11:28.454Z,4.03
2019-04-29T10:13:57.419Z,3.50
2019-04-29T10:16:45.287Z,4.05
2019-04-29T10:19:17.085Z,3.83
2019-04-29T10:21:46.986Z,4.47
2019-04-29T10:24:15.791Z,5.95
2019-04-29T10:26:44.524Z,3.50
2019-04-29T10:29:25.717Z,4.08
2019-04-29T10:31:54.176Z,4.90
2019-04-29T10:34:27.038Z,4.03
2019-04-29T10:36:53.978Z,3.35
2019-04-29T10:39:36.872Z,3.52
2019-04-29T10:42:07.438Z,3.40
2019-04-29T10:44:40.544Z,3.55
2019-04-29T10:47:13.807Z,3.25
2019-04-29T10:49:44.172Z,3.42
2019-04-29T10:52:13.370Z,3.85
2019-04-29T10:54:42.415Z,3.35
2019-04-29T10:57:14.719Z,3.02
2019-04-29T10:59:44.981Z,3.42
2019-04-29T11:02:16.184Z,3.62
2019-04-29T11:04:46.675Z,3.55
2019-04-29T11:07:26.615Z,3.50
2019-04-29T11:09:57.677Z,3.20
2019-04-29T11:12:26.491Z,3.77
2019-04-29T11:14:56.384Z,3.15
2019-04-29T11:17:27.143Z,3.22
2019-04-29T11:19:55.932Z,3.60
2019-04-29T11:22:26.335Z,2.98
2019-04-29T11:25:14.566Z,3.52
2019-04-29T11:27:50.758Z,3.35
2019-04-29T11:30:21.215Z,3.35
2019-04-29T11:32:51.579Z,4.08
2019-04-29T11:35:28.354Z,3.27
2019-04-29T11:37:59.660Z,3.40
2019-04-29T11:40:42.511Z,3.40
2019-04-29T11:42:56.092Z,2.80
2019-04-29T11:45:24.897Z,3.05
2019-04-29T11:47:53.670Z,5.60
2019-04-29T11:50:26.790Z,6.62
2019-04-29T11:52:55.661Z,7.67
2019-04-29T11:55:25.217Z,5.58
2019-04-29T11:58:01.441Z,6.85
2019-04-29T12:00:51.756Z,7.80
2019-04-29T12:03:21.002Z,7.75
2019-04-29T12:05:51.438Z,6.50
2019-04-29T12:08:20.183Z,6.53
2019-04-29T12:11:05.993Z,7.95
2019-04-29T12:13:27.146Z,7.33
2019-04-29T12:15:59.636Z,5.20
2019-04-29T12:18:29.998Z,5.30
2019-04-29T12:21:18.469Z,3.98
2019-04-29T12:23:47.676Z,3.05
2019-04-29T12:26:19.939Z,3.12
2019-04-29T12:28:48.645Z,6.00
2019-04-29T12:31:19.349Z,6.67
2019-04-29T12:33:49.772Z,4.90
2019-04-29T12:36:19.850Z,4.37
2019-04-29T12:39:07.313Z,3.67
2019-04-29T12:41:50.075Z,4.33
2019-04-29T12:44:34.724Z,3.58
2019-04-29T12:46:57.693Z,3.00
2019-04-29T12:49:27.456Z,2.90
2019-04-29T12:51:56.212Z,4.37
2019-04-29T12:54:24.935Z,4.00
2019-04-29T12:56:53.700Z,4.05
2019-04-29T12:59:22.425Z,3.92
2019-04-29T13:01:58.565Z,4.85
2019-04-29T13:04:30.782Z,4.08
2019-04-29T13:07:17.067Z,3.25
2019-04-29T13:09:56.532Z,2.47
2019-04-29T13:12:25.307Z,2.45
2019-04-29T13:15:07.997Z,3.20
2019-04-29T13:18:02.761Z,3.27
2019-04-29T13:20:22.516Z,3.02
2019-04-29T13:22:51.201Z,2.98
2019-04-29T13:25:20.829Z,2.75
2019-04-29T13:27:49.940Z,3.10
2019-04-29T13:30:18.845Z,2.90
2019-04-29T13:32:47.597Z,3.15
2019-04-29T13:35:18.978Z,4.25
2019-04-29T13:37:47.883Z,3.08
2019-04-29T13:40:17.108Z,2.85
2019-04-29T13:42:49.245Z,3.52
2019-04-29T13:45:24.794Z,3.42
2019-04-29T13:47:54.135Z,4.37
2019-04-29T13:50:38.897Z,3.98
2019-04-29T13:52:55.570Z,2.83
2019-04-29T13:55:47.270Z,2.75
2019-04-29T13:57:55.010Z,2.58
2019-04-29T14:00:28.667Z,4.67
2019-04-29T14:02:59.602Z,2.77
2019-04-29T14:05:36.292Z,2.50
2019-04-29T14:08:03.906Z,2.52
2019-04-29T14:13:09.672Z,2.87
2019-04-29T14:15:33.879Z,2.67
2019-04-29T14:18:01.165Z,2.87
2019-04-29T14:20:29.957Z,2.62
2019-04-29T14:22:58.831Z,1.98
2019-04-29T14:25:27.561Z,1.92
2019-04-29T14:27:58.956Z,2.67
2019-04-29T14:30:38.455Z,2.65
2019-04-29T14:33:01.796Z,2.40
2019-04-29T14:35:31.856Z,2.62
2019-04-29T14:38:05.190Z,2.10
2019-04-29T14:40:32.491Z,2.33
2019-04-29T14:43:07.128Z,2.60
2019-04-29T14:45:46.942Z,2.60
2019-04-29T14:48:17.284Z,3.80
2019-04-29T14:50:49.474Z,4.80
2019-04-29T14:53:19.546Z,2.60
2019-04-29T14:55:49.465Z,3.40
2019-04-29T14:58:18.169Z,3.30
2019-04-29T15:00:51.590Z,3.40
2019-04-29T15:03:24.585Z,2.00
2019-04-29T15:05:53.279Z,2.30
2019-04-29T15:08:22.123Z,2.20
2019-04-29T15:10:52.541Z,2.12
2019-04-29T15:13:22.324Z,2.10
2019-04-29T15:16:49.518Z,2.00
2019-04-29T15:19:36.185Z,1.90
2019-04-29T15:22:06.557Z,1.85
2019-04-29T15:24:35.419Z,1.90
2019-04-29T15:27:04.398Z,1.62
2019-04-29T15:29:33.529Z,2.10
2019-04-29T15:32:03.157Z,1.75
2019-04-29T15:34:32.028Z,2.00
2019-04-29T15:37:00.824Z,1.65
2019-04-29T15:39:29.711Z,2.08
2019-04-29T15:42:01.773Z,1.47
2019-04-29T15:44:29.035Z,1.80
2019-04-29T15:46:57.832Z,1.55
2019-04-29T15:49:26.673Z,1.60
2019-04-29T15:51:55.361Z,2.00
2019-04-29T15:56:54.555Z,1.98
2019-04-29T15:59:23.261Z,1.70
2019-04-29T16:01:52.138Z,1.77
2019-04-29T16:04:32.519Z,2.20
2019-04-29T16:07:17.631Z,2.00
2019-04-29T16:09:51.572Z,1.85
2019-04-29T16:12:28.283Z,1.67
2019-04-29T16:14:57.047Z,2.40
2019-04-29T16:17:31.672Z,1.95
2019-04-29T16:19:57.667Z,1.80
2019-04-29T16:22:27.653Z,2.08
2019-04-29T16:24:59.477Z,1.60
2019-04-29T16:27:26.847Z,2.10
2019-04-29T16:29:55.633Z,2.30
2019-04-29T16:32:28.714Z,2.60
2019-04-29T16:34:57.488Z,2.30
2019-04-29T16:37:31.794Z,3.42
2019-04-29T16:39:59.703Z,2.30
2019-04-29T16:42:28.834Z,2.35
2019-04-29T16:44:57.539Z,2.40
2019-04-29T16:47:26.921Z,2.65
2019-04-29T16:49:57.450Z,2.75
2019-04-29T16:52:26.106Z,2.75
2019-04-29T16:54:59.162Z,2.00
2019-04-29T16:57:25.276Z,2.60
2019-04-29T16:59:53.998Z,2.33
2019-04-29T17:02:22.912Z,2.40
2019-04-29T17:04:51.765Z,2.90
2019-04-29T17:07:20.689Z,2.27
2019-04-29T17:10:07.928Z,2.22
2019-04-29T17:12:38.331Z,2.40
2019-04-29T17:15:23.565Z,2.85
2019-04-29T17:17:37.798Z,2.52
2019-04-29T17:20:07.412Z,2.80
2019-04-29T17:22:43.130Z,3.90
2019-04-29T17:25:08.524Z,2.77
2019-04-29T17:27:42.347Z,2.65
2019-04-29T17:30:23.498Z,2.92
2019-04-29T17:33:00.735Z,3.22
2019-04-29T17:35:13.769Z,1.52
2019-04-29T17:35:31.805Z,3.33
2019-04-29T17:38:00.596Z,3.40
2019-04-29T17:40:29.592Z,3.47
2019-04-29T17:43:04.950Z,3.33
2019-04-29T17:45:34.449Z,3.50
2019-04-29T17:48:04.819Z,3.98
2019-04-29T17:50:39.213Z,3.27
2019-04-29T17:53:07.340Z,3.83
2019-04-29T17:55:40.733Z,4.15
2019-04-29T17:58:19.518Z,4.33
2019-04-29T18:01:05.332Z,4.03
2019-04-29T18:03:41.203Z,4.45
2019-04-29T18:06:07.832Z,4.22
2019-04-29T18:08:54.902Z,3.98
2019-04-29T18:11:24.952Z,4.45
2019-04-29T18:13:56.922Z,4.40
2019-04-29T18:16:28.406Z,4.80
2019-04-29T18:19:05.635Z,4.90
2019-04-29T18:21:43.451Z,5.60
2019-04-29T18:24:34.165Z,5.58
2019-04-29T18:27:02.249Z,5.83
2019-04-29T18:29:36.710Z,6.42
2019-04-29T18:32:05.187Z,6.25
2019-04-29T18:34:33.707Z,6.97
2019-04-29T18:37:02.307Z,6.97
2019-04-29T18:39:33.304Z,6.62
2019-04-29T18:42:03.336Z,5.40
2019-04-29T18:44:32.512Z,7.28
2019-04-29T18:47:01.370Z,7.65
2019-04-29T18:49:30.174Z,7.37
2019-04-29T18:52:02.307Z,8.25
2019-04-29T18:54:29.398Z,7.78
2019-04-29T18:56:58.213Z,8.90
2019-04-29T18:59:33.312Z,9.30
2019-04-29T19:02:00.898Z,8.98
2019-04-29T19:04:31.893Z,10.40
2019-04-29T19:07:02.501Z,9.88
2019-04-29T19:09:35.888Z,9.00
2019-04-29T19:12:05.236Z,9.83
2019-04-29T19:14:35.277Z,10.65
2019-04-29T19:17:04.907Z,11.08
2019-04-29T19:19:35.873Z,11.15
2019-04-29T19:22:07.701Z,12.90
2019-04-29T19:24:36.480Z,11.48
2019-04-29T19:27:09.399Z,10.93
2019-04-29T19:29:38.848Z,12.95
2019-04-29T19:32:06.278Z,12.05
2019-04-29T19:34:42.985Z,11.10
2019-04-29T19:37:05.470Z,11.12
2019-04-29T19:39:34.905Z,10.25
2019-04-29T19:42:05.555Z,12.30
2019-04-29T19:44:36.616Z,10.35
2019-04-29T19:47:04.578Z,9.90
2019-04-29T19:49:33.333Z,10.13
2019-04-29T19:52:02.178Z,8.33
2019-04-29T19:54:30.913Z,7.78
2019-04-29T19:57:03.422Z,7.12
2019-04-29T19:59:30.510Z,7.83
2019-04-29T20:02:05.183Z,7.53
2019-04-29T20:04:38.142Z,6.60
2019-04-29T20:07:09.993Z,7.30
2019-04-29T20:09:38.945Z,5.95
2019-04-29T20:12:12.802Z,6.08
2019-04-29T20:14:38.882Z,4.85
2019-04-29T20:17:21.448Z,4.55
2019-04-29T20:20:08.536Z,5.12
2019-04-29T20:22:42.957Z,5.17
2019-04-29T20:25:08.316Z,4.65
2019-04-29T20:27:37.771Z,4.90
2019-04-29T20:30:15.864Z,3.60
2019-04-29T20:32:38.123Z,3.60
2019-04-29T20:35:08.944Z,3.50
2019-04-29T20:37:38.763Z,3.75
2019-04-29T20:40:07.972Z,3.60
2019-04-29T20:42:40.431Z,3.62
2019-04-29T20:45:08.618Z,3.33
2019-04-29T20:47:41.661Z,3.40
2019-04-29T20:50:13.465Z,2.85
2019-04-29T20:52:41.166Z,3.02
2019-04-29T20:55:10.372Z,3.27
2019-04-29T20:57:39.240Z,3.83
2019-04-29T21:00:09.026Z,4.05
2019-04-29T21:02:38.042Z,2.75
2019-04-29T21:05:09.791Z,3.27
2019-04-29T21:07:37.900Z,3.00
2019-04-29T21:10:08.634Z,2.75
2019-04-29T21:12:59.305Z,3.70
2019-04-29T21:15:36.195Z,3.20
2019-04-29T21:18:05.460Z,3.67
2019-04-29T21:20:35.046Z,2.92
2019-04-29T21:23:03.837Z,2.92
2019-04-29T21:25:32.552Z,2.52
2019-04-29T21:28:02.328Z,3.30
2019-04-29T21:30:35.487Z,3.40
2019-04-29T21:33:01.729Z,3.30
2019-04-29T21:35:49.538Z,3.30
2019-04-29T21:38:22.368Z,2.80
2019-04-29T21:41:15.626Z,3.60
2019-04-29T21:43:48.863Z,3.22
2019-04-29T21:46:19.710Z,3.15
2019-04-29T21:48:45.682Z,3.20
2019-04-29T21:51:15.460Z,3.37
2019-04-29T21:53:45.932Z,2.83
2019-04-29T21:56:16.015Z,2.80
2019-04-29T21:58:44.883Z,3.10
2019-04-29T22:01:15.225Z,3.58
2019-04-29T22:03:44.327Z,2.85
2019-04-29T22:06:13.050Z,2.80
2019-04-29T22:08:41.795Z,3.30
2019-04-29T22:11:10.528Z,3.20
2019-04-29T22:13:39.337Z,2.95
2019-04-29T22:16:11.482Z,3.10
2019-04-29T22:18:38.744Z,2.77
2019-04-29T22:21:10.036Z,2.87
2019-04-29T22:23:37.910Z,3.35
2019-04-29T22:26:06.629Z,2.72
2019-04-29T22:28:35.353Z,4.55
2019-04-29T22:31:07.442Z,2.77
2019-04-29T22:33:38.455Z,3.52
2019-04-29T22:36:05.404Z,3.20
2019-04-29T22:38:35.885Z,2.80
2019-04-29T22:41:06.560Z,3.00
2019-04-29T22:43:40.266Z,3.50
2019-04-29T22:46:10.703Z,4.12
2019-04-29T22:48:40.527Z,3.42
2019-04-29T22:51:10.150Z,3.30
2019-04-29T22:53:44.228Z,3.75
2019-04-29T22:56:14.192Z,3.22
2019-04-29T22:58:43.956Z,3.70
2019-04-29T23:01:11.654Z,3.90
2019-04-29T23:03:40.373Z,3.58
2019-04-29T23:06:09.098Z,3.58
2019-04-29T23:08:38.163Z,3.58
2019-04-29T23:11:07.034Z,3.15
2019-04-29T23:13:38.010Z,3.37
2019-04-29T23:16:06.168Z,3.60
2019-04-29T23:18:42.041Z,3.35
2019-04-29T23:21:23.460Z,3.58
2019-04-29T23:23:55.189Z,3.17
2019-04-29T23:28:55.319Z,3.55
2019-04-29T23:31:27.127Z,2.95
2019-04-29T23:33:56.416Z,2.80
2019-04-29T23:36:24.802Z,3.22
2019-04-29T23:38:54.784Z,2.83
2019-04-29T23:41:26.076Z,3.33
2019-04-29T23:43:55.608Z,3.00
2019-04-29T23:46:24.640Z,3.10
2019-04-29T23:48:56.488Z,3.15
2019-04-29T23:51:29.122Z,2.92
2019-04-29T23:54:00.340Z,2.80
2019-04-29T23:56:26.148Z,3.10
2019-04-29T23:58:56.511Z,2.92
